createdAt,value
2023-03-06T00:03:28.180Z,97893.95
2023-03-06T00:08:31.413Z,97887.33
2023-03-06T00:13:40.615Z,97883.80
2023-03-06T00:18:44.128Z,97887.40
2023-03-06T00:23:46.484Z,97881.20
2023-03-06T00:28:49.277Z,97867.72
2023-03-06T00:33:53.633Z,97854.64
2023-03-06T00:38:56.133Z,97868.38
2023-03-06T00:44:04.052Z,97873.92
2023-03-06T00:49:10.525Z,97874.27
2023-03-06T00:54:33.327Z,97876.34
2023-03-06T00:59:35.924Z,97871.30
2023-03-06T01:04:39.035Z,97867.63
2023-03-06T01:09:41.296Z,97865.54
2023-03-06T01:14:43.371Z,97867.30
2023-03-06T01:19:45.446Z,97872.60
2023-03-06T01:24:49.295Z,97869.73
2023-03-06T01:29:51.733Z,97865.05
2023-03-06T01:34:54.277Z,97855.00
2023-03-06T01:39:56.440Z,97855.46
2023-03-06T01:45:08.504Z,97847.52
2023-03-06T01:50:12.743Z,97839.77
2023-03-06T01:55:21.294Z,97840.35
2023-03-06T02:00:29.651Z,97851.50
2023-03-06T02:05:32.591Z,97843.64
2023-03-06T02:10:35.140Z,97842.69
2023-03-06T02:15:39.847Z,97837.06
2023-03-06T02:21:20.409Z,97831.39
2023-03-06T02:26:23.083Z,97832.11
2023-03-06T02:31:28.984Z,97827.88
2023-03-06T02:36:35.894Z,97830.15
2023-03-06T02:41:38.276Z,97831.58
2023-03-06T02:46:41.077Z,97830.84
2023-03-06T02:51:43.909Z,97824.40
2023-03-06T02:56:48.125Z,97825.83
2023-03-06T03:01:50.597Z,97831.39
2023-03-06T03:06:53.521Z,97830.82
2023-03-06T03:11:55.703Z,97825.05
2023-03-06T03:17:01.195Z,97821.83
2023-03-06T03:22:03.384Z,97821.45
2023-03-06T03:27:06.580Z,97814.51
2023-03-06T03:32:09.908Z,97812.48
2023-03-06T03:37:14.095Z,97806.42
2023-03-06T03:42:17.582Z,97794.04
2023-03-06T03:47:20.101Z,97791.55
2023-03-06T03:52:23.153Z,97797.11
2023-03-06T03:57:26.460Z,97789.22
2023-03-06T04:02:29.338Z,97781.05
2023-03-06T04:07:46.860Z,97778.25
2023-03-06T04:12:49.519Z,97774.82
2023-03-06T04:17:51.951Z,97765.42
2023-03-06T04:22:56.850Z,97767.73
2023-03-06T04:27:59.238Z,97766.41
2023-03-06T04:33:03.506Z,97759.79
2023-03-06T04:38:06.008Z,97748.49
2023-03-06T04:43:09.244Z,97745.52
2023-03-06T04:48:18.868Z,97739.11
2023-03-06T04:53:22.473Z,97738.37
2023-03-06T04:58:25.876Z,97736.62
2023-03-06T05:03:28.388Z,97727.54
2023-03-06T05:08:31.139Z,97705.68
2023-03-06T05:13:33.755Z,97714.90
2023-03-06T05:18:37.940Z,97715.75
2023-03-06T05:23:40.446Z,97713.46
2023-03-06T05:28:42.849Z,97706.56
2023-03-06T05:33:44.865Z,97707.39
2023-03-06T05:38:46.830Z,97706.48
2023-03-06T05:43:49.717Z,97710.63
2023-03-06T05:48:56.118Z,97709.96
2023-03-06T05:53:58.520Z,97711.80
2023-03-06T05:59:00.760Z,97710.52
2023-03-06T06:04:03.277Z,97714.02
2023-03-06T06:09:05.110Z,97714.06
2023-03-06T06:14:07.204Z,97715.49
2023-03-06T06:19:09.682Z,97716.23
2023-03-06T06:24:11.895Z,97714.30
2023-03-06T06:29:13.880Z,97714.21
2023-03-06T06:34:17.052Z,97715.75
2023-03-06T06:39:21.434Z,97718.04
2023-03-06T06:44:23.815Z,97721.55
2023-03-06T06:49:25.914Z,97721.27
2023-03-06T06:54:28.404Z,97727.96
2023-03-06T06:59:30.305Z,97730.19
2023-03-06T07:04:32.255Z,97729.95
2023-03-06T07:09:34.504Z,97735.06
2023-03-06T07:14:37.233Z,97730.81
2023-03-06T07:19:39.663Z,97731.75
2023-03-06T07:24:41.847Z,97734.70
2023-03-06T07:29:44.681Z,97735.04
2023-03-06T07:34:47.207Z,97738.42
2023-03-06T07:39:49.128Z,97736.94
2023-03-06T07:44:52.862Z,97739.73
2023-03-06T07:49:57.264Z,97745.20
2023-03-06T07:54:59.866Z,97745.08
2023-03-06T08:00:03.333Z,97744.20
2023-03-06T08:05:16.688Z,97742.48
2023-03-06T08:10:18.785Z,97743.64
2023-03-06T08:15:20.922Z,97737.61
2023-03-06T08:20:23.302Z,97739.38
2023-03-06T08:25:25.247Z,97739.07
2023-03-06T08:30:27.081Z,97734.88
2023-03-06T08:35:28.981Z,97738.80
2023-03-06T08:40:31.213Z,97739.91
2023-03-06T08:45:33.200Z,97738.02
2023-03-06T08:50:35.600Z,97743.23
2023-03-06T08:55:38.427Z,97744.63
2023-03-06T09:00:40.646Z,97747.45
2023-03-06T09:05:42.707Z,97745.66
2023-03-06T09:10:48.380Z,97750.29
2023-03-06T09:15:54.463Z,97747.00
2023-03-06T09:20:56.954Z,97747.79
2023-03-06T09:26:00.352Z,97742.91
2023-03-06T09:31:07.851Z,97740.46
2023-03-06T09:36:18.966Z,97736.80
2023-03-06T09:41:34.286Z,97728.67
2023-03-06T09:47:14.619Z,97733.64
2023-03-06T09:52:36.586Z,97728.09
2023-03-06T09:57:42.833Z,97729.98
2023-03-06T10:02:50.688Z,97727.09
2023-03-06T10:08:05.754Z,97728.06
2023-03-06T10:13:28.272Z,97720.55
2023-03-06T10:18:30.450Z,97712.05
2023-03-06T10:23:46.924Z,97712.16
2023-03-06T10:29:14.719Z,97703.98
2023-03-06T10:34:22.172Z,97691.86
2023-03-06T10:39:24.065Z,97696.05
2023-03-06T10:44:25.981Z,97688.99
2023-03-06T10:49:36.610Z,97689.77
2023-03-06T10:54:44.378Z,97681.36
2023-03-06T10:59:58.586Z,97681.27
2023-03-06T11:05:02.092Z,97674.67
2023-03-06T11:10:19.008Z,97671.67
2023-03-06T11:15:22.556Z,97664.48
2023-03-06T11:20:24.834Z,97656.90
2023-03-06T11:25:34.503Z,97654.06
2023-03-06T11:30:43.904Z,97644.66
2023-03-06T11:35:52.115Z,97637.23
2023-03-06T11:40:59.002Z,97626.98
2023-03-06T11:46:25.229Z,97621.20
2023-03-06T11:51:33.286Z,97606.34
2023-03-06T11:56:38.391Z,97591.27
2023-03-06T12:02:00.624Z,97584.57
2023-03-06T12:07:21.548Z,97573.90
2023-03-06T12:12:46.423Z,97564.61
2023-03-06T12:18:16.370Z,97562.21
2023-03-06T12:23:39.129Z,97562.83
2023-03-06T12:29:07.411Z,97559.94
2023-03-06T12:34:34.109Z,97557.14
2023-03-06T12:40:13.744Z,97550.73
2023-03-06T12:45:39.642Z,97546.80
2023-03-06T12:50:45.623Z,97545.11
2023-03-06T12:55:50.303Z,97541.95
2023-03-06T13:01:16.775Z,97539.98
2023-03-06T13:06:50.887Z,97533.63
2023-03-06T13:12:05.985Z,97523.27
2023-03-06T13:17:25.465Z,97519.95
2023-03-06T13:22:29.712Z,97515.35
2023-03-06T13:27:54.805Z,97510.33
2023-03-06T13:32:57.424Z,97513.01
2023-03-06T13:38:00.436Z,97517.23
2023-03-06T13:43:08.088Z,97509.27
2023-03-06T13:48:47.713Z,97509.84
2023-03-06T13:54:26.281Z,97503.69
2023-03-06T13:59:37.199Z,97508.90
2023-03-06T14:04:47.428Z,97517.80
2023-03-06T14:10:11.045Z,97520.20
2023-03-06T14:15:31.727Z,97526.30
2023-03-06T14:20:40.539Z,97536.53
2023-03-06T14:25:45.312Z,97530.27
2023-03-06T14:30:53.688Z,97528.08
2023-03-06T14:35:59.679Z,97533.21
2023-03-06T14:41:03.342Z,97526.97
2023-03-06T14:46:06.960Z,97528.60
2023-03-06T14:51:17.025Z,97522.42
2023-03-06T14:56:25.831Z,97522.69
2023-03-06T15:01:38.511Z,97520.25
2023-03-06T15:06:43.725Z,97518.19
2023-03-06T15:11:57.905Z,97518.95
2023-03-06T15:17:18.429Z,97523.33
2023-03-06T15:22:31.624Z,97515.10
2023-03-06T15:27:33.719Z,97514.59
2023-03-06T15:32:42.877Z,97510.83
2023-03-06T15:37:44.974Z,97514.20
2023-03-06T15:42:47.382Z,97511.73
2023-03-06T15:47:52.095Z,97511.71
2023-03-06T15:52:54.174Z,97513.20
2023-03-06T15:58:02.244Z,97508.77
2023-03-06T16:03:05.040Z,97512.91
2023-03-06T16:08:07.526Z,97509.88
2023-03-06T16:13:22.401Z,97512.11
2023-03-06T16:18:25.115Z,97512.38
2023-03-06T16:23:27.078Z,97513.25
2023-03-06T16:28:29.049Z,97506.81
2023-03-06T16:33:30.993Z,97504.30
2023-03-06T16:38:32.937Z,97502.11
2023-03-06T16:43:35.563Z,97496.61
2023-03-06T16:48:37.799Z,97495.52
2023-03-06T16:53:39.930Z,97496.56
2023-03-06T16:58:45.490Z,97499.83
2023-03-06T17:03:47.972Z,97498.67
2023-03-06T17:08:51.057Z,97506.70
2023-03-06T17:13:54.835Z,97505.39
2023-03-06T17:18:58.288Z,97510.27
2023-03-06T17:24:02.502Z,97508.80
2023-03-06T17:29:07.009Z,97522.27
2023-03-06T17:34:09.446Z,97516.79
2023-03-06T17:39:12.949Z,97514.91
2023-03-06T17:44:16.973Z,97519.11
2023-03-06T17:49:21.645Z,97514.67
2023-03-06T17:54:30.075Z,97518.52
2023-03-06T17:59:36.297Z,97512.90
2023-03-06T18:04:38.597Z,97512.92
2023-03-06T18:09:42.878Z,97514.25
2023-03-06T18:14:45.579Z,97518.73
2023-03-06T18:19:48.182Z,97522.20
2023-03-06T18:24:51.081Z,97520.48
2023-03-06T18:29:55.550Z,97519.56
2023-03-06T18:34:58.309Z,97519.17
2023-03-06T18:40:00.835Z,97520.92
2023-03-06T18:45:03.367Z,97521.13
2023-03-06T18:50:06.832Z,97518.14
2023-03-06T18:55:10.364Z,97520.71
2023-03-06T19:00:22.472Z,97523.04
2023-03-06T19:05:24.563Z,97521.68
2023-03-06T19:10:27.064Z,97521.20
2023-03-06T19:15:30.265Z,97518.27
2023-03-06T19:20:33.020Z,97516.78
2023-03-06T19:25:35.821Z,97516.82
2023-03-06T19:30:40.925Z,97518.46
2023-03-06T19:35:43.430Z,97516.59
2023-03-06T19:40:51.967Z,97515.92
2023-03-06T19:45:55.218Z,97520.33
2023-03-06T19:50:57.196Z,97517.06
2023-03-06T19:56:21.530Z,97518.41
2023-03-06T20:01:26.696Z,97513.98
2023-03-06T20:06:33.760Z,97516.79
2023-03-06T20:11:35.977Z,97517.95
2023-03-06T20:16:39.549Z,97516.62
2023-03-06T20:21:42.712Z,97518.38
2023-03-06T20:26:46.824Z,97522.32
2023-03-06T20:31:49.454Z,97522.47
2023-03-06T20:36:51.510Z,97525.42
2023-03-06T20:41:54.975Z,97525.11
2023-03-06T20:46:57.088Z,97523.35
2023-03-06T20:51:59.156Z,97522.55
2023-03-06T20:57:01.405Z,97520.87
2023-03-06T21:02:04.142Z,97522.54
2023-03-06T21:07:07.085Z,97521.68
2023-03-06T21:12:09.413Z,97519.75
2023-03-06T21:17:13.843Z,97515.89
2023-03-06T21:22:17.189Z,97513.88
2023-03-06T21:27:19.559Z,97516.00
2023-03-06T21:32:21.716Z,97515.27
2023-03-06T21:37:23.739Z,97517.82
2023-03-06T21:42:26.253Z,97520.17
2023-03-06T21:47:28.545Z,97518.42
2023-03-06T21:52:30.574Z,97517.80
2023-03-06T21:57:32.798Z,97514.46
2023-03-06T22:02:35.552Z,97515.55
2023-03-06T22:07:38.269Z,97509.41
2023-03-06T22:12:41.989Z,97505.19
2023-03-06T22:17:48.723Z,97503.47
2023-03-06T22:22:51.005Z,97503.23
2023-03-06T22:27:53.130Z,97502.61
2023-03-06T22:32:57.118Z,97504.16
2023-03-06T22:37:59.668Z,97501.08
2023-03-06T22:43:02.646Z,97501.90
2023-03-06T22:48:11.171Z,97500.15
2023-03-06T22:53:20.957Z,97502.24
2023-03-06T22:58:23.270Z,97497.35
2023-03-06T23:03:25.189Z,97497.53
2023-03-06T23:08:27.200Z,97497.15
2023-03-06T23:13:29.118Z,97497.13
2023-03-06T23:18:52.461Z,97497.08
2023-03-06T23:24:12.958Z,97496.77
2023-03-06T23:29:16.358Z,97496.04
2023-03-06T23:34:18.401Z,97501.77
2023-03-06T23:39:21.374Z,97500.23
2023-03-06T23:44:23.242Z,97501.59
2023-03-06T23:49:25.192Z,97499.40
2023-03-06T23:54:27.179Z,97495.98
2023-03-06T23:59:29.493Z,97491.77
